KAGC METAR
PITTSBURGH/ALLEG, PA
Metar
KAGC 222353Z 20004KT 10SM OVC060 11/01 A3007 RMK AO2 SLP193 T01110006 10133 20111 53001

23:53 UTC

Wind: 200° 4kt

Visibility: 10 SM

Sky: OVC 6000 ft

Temp: 11 deg C / 51.8 deg F

Dewpoint: 1 deg C / 33.8 deg F

Pressure: 30.07 inHg

TAF
KAGC 222331Z 2300/2324 22005KT P6SM BKN070 FM231500 27013G22KT P6SM BKN035 FM231900 30016G25KT P6SM BKN040 FM232200 31012KT P6SM BKN040